createdAt,value
2022-08-05T00:02:24.268Z,11.00
2022-08-05T00:04:55.595Z,9.57
2022-08-05T00:08:00.464Z,10.93
2022-08-05T00:10:11.529Z,14.70
2022-08-05T00:12:56.748Z,12.03
2022-08-05T00:15:54.990Z,9.47
2022-08-05T00:18:21.393Z,8.77
2022-08-05T00:20:50.421Z,13.87
2022-08-05T00:23:44.792Z,9.80
2022-08-05T00:26:07.071Z,12.97
2022-08-05T00:28:35.206Z,15.20
2022-08-05T00:31:04.491Z,16.43
2022-08-05T00:34:56.057Z,11.07
2022-08-05T00:37:10.632Z,10.03
2022-08-05T00:39:13.649Z,11.90
2022-08-05T00:41:52.143Z,9.80
2022-08-05T00:44:30.946Z,13.30
2022-08-05T00:47:03.811Z,11.17
2022-08-05T00:49:44.757Z,12.53
2022-08-05T00:52:28.310Z,13.07
2022-08-05T00:54:56.993Z,13.10
2022-08-05T00:57:31.702Z,13.47
2022-08-05T01:00:11.214Z,12.20
2022-08-05T01:02:41.104Z,12.90
2022-08-05T01:05:10.532Z,15.33
2022-08-05T01:07:38.292Z,18.57
2022-08-05T01:10:31.668Z,16.87
2022-08-05T01:13:13.407Z,16.03
2022-08-05T01:15:58.124Z,18.63
2022-08-05T01:18:30.742Z,25.97
2022-08-05T01:21:12.379Z,18.37
2022-08-05T01:24:13.127Z,17.60
2022-08-05T01:26:57.907Z,19.03
2022-08-05T01:29:32.927Z,17.40
2022-08-05T01:32:07.087Z,16.03
2022-08-05T01:34:46.910Z,19.07
2022-08-05T01:37:24.878Z,16.57
2022-08-05T01:39:59.200Z,20.23
2022-08-05T01:42:28.877Z,19.57
2022-08-05T01:45:02.117Z,23.70
2022-08-05T01:47:39.758Z,20.53
2022-08-05T01:50:15.962Z,18.67
2022-08-05T01:52:49.974Z,15.10
2022-08-05T01:55:20.329Z,17.70
2022-08-05T01:58:12.249Z,19.07
2022-08-05T02:00:45.376Z,18.90
2022-08-05T02:03:24.460Z,18.97
2022-08-05T02:06:03.353Z,12.13
2022-08-05T02:08:55.004Z,16.00
2022-08-05T02:11:33.146Z,19.57
2022-08-05T02:14:08.107Z,16.03
2022-08-05T02:16:52.258Z,14.73
2022-08-05T02:19:34.455Z,16.33
2022-08-05T02:22:10.109Z,17.03
2022-08-05T02:24:56.857Z,15.73
2022-08-05T02:27:30.187Z,18.70
2022-08-05T02:30:17.808Z,17.87
2022-08-05T02:32:50.474Z,21.53
2022-08-05T02:35:27.765Z,15.90
2022-08-05T02:37:59.122Z,16.70
2022-08-05T02:40:28.499Z,21.53
2022-08-05T02:42:57.971Z,15.53
2022-08-05T02:45:28.451Z,16.87
2022-08-05T02:48:12.129Z,17.20
2022-08-05T02:50:44.007Z,18.63
2022-08-05T02:53:18.719Z,15.90
2022-08-05T02:55:54.420Z,20.57
2022-08-05T02:58:30.216Z,20.73
2022-08-05T03:01:02.283Z,23.37
2022-08-05T03:03:34.036Z,17.80
2022-08-05T03:06:55.284Z,17.07
2022-08-05T03:09:15.805Z,24.27
2022-08-05T03:11:54.843Z,18.23
2022-08-05T03:14:26.244Z,23.27
2022-08-05T03:16:54.146Z,19.13
2022-08-05T03:19:34.637Z,21.23
2022-08-05T03:22:04.885Z,22.27
2022-08-05T03:24:46.929Z,24.40
2022-08-05T03:27:19.899Z,19.20
2022-08-05T03:30:08.777Z,16.57
2022-08-05T03:32:36.264Z,21.13
2022-08-05T03:35:06.376Z,19.87
2022-08-05T03:37:44.694Z,17.73
2022-08-05T03:40:15.292Z,16.83
2022-08-05T03:42:52.900Z,20.67
2022-08-05T03:45:23.076Z,14.17
2022-08-05T03:47:51.707Z,20.27
2022-08-05T03:50:28.414Z,14.27
2022-08-05T03:55:49.684Z,14.57
2022-08-05T03:56:09.971Z,11.57
2022-08-05T03:58:45.926Z,15.63
2022-08-05T04:01:15.732Z,11.47
2022-08-05T04:04:09.381Z,13.20
2022-08-05T04:06:47.741Z,15.37
2022-08-05T04:09:20.325Z,16.80
2022-08-05T04:11:54.327Z,15.60
2022-08-05T04:14:30.663Z,18.33
2022-08-05T04:17:00.632Z,14.97
2022-08-05T04:19:29.521Z,16.57
2022-08-05T04:22:09.918Z,14.87
2022-08-05T04:24:43.782Z,19.53
2022-08-05T04:27:13.142Z,18.30
2022-08-05T04:29:42.598Z,16.53
2022-08-05T04:32:10.662Z,13.87
2022-08-05T04:34:42.671Z,13.77
2022-08-05T04:37:12.697Z,13.37
2022-08-05T04:39:40.781Z,12.27
2022-08-05T04:42:09.549Z,15.67
2022-08-05T04:44:37.317Z,44.37
2022-08-05T04:47:08.883Z,15.77
2022-08-05T04:50:01.712Z,12.47
2022-08-05T04:52:27.911Z,17.40
2022-08-05T04:54:56.893Z,15.53
2022-08-05T04:57:28.925Z,16.27
2022-08-05T04:59:58.478Z,15.63
2022-08-05T05:02:36.572Z,14.13
2022-08-05T05:05:16.588Z,12.70
2022-08-05T05:08:01.613Z,16.67
2022-08-05T05:10:30.834Z,13.93
2022-08-05T05:13:03.841Z,12.93
2022-08-05T05:15:57.927Z,13.70
2022-08-05T05:18:31.307Z,11.27
2022-08-05T05:21:01.890Z,12.80
2022-08-05T05:23:39.236Z,12.60
2022-08-05T05:26:19.152Z,14.27
2022-08-05T05:28:47.119Z,13.37
2022-08-05T05:31:14.888Z,13.60
2022-08-05T05:33:59.664Z,13.93
2022-08-05T05:36:30.889Z,17.67
2022-08-05T05:39:03.603Z,14.50
2022-08-05T05:41:40.405Z,9.77
2022-08-05T05:44:35.860Z,11.43
2022-08-05T05:46:58.102Z,17.83
2022-08-05T05:49:26.203Z,16.13
2022-08-05T05:51:54.227Z,15.63
2022-08-05T05:54:49.741Z,17.30
2022-08-05T05:57:13.843Z,15.20
2022-08-05T05:59:47.157Z,15.17
2022-08-05T06:02:16.888Z,15.37
2022-08-05T06:04:44.776Z,15.13
2022-08-05T06:07:17.251Z,13.87
2022-08-05T06:10:01.493Z,13.73
2022-08-05T06:12:34.733Z,13.23
2022-08-05T06:15:16.527Z,14.50
2022-08-05T06:17:54.253Z,10.43
2022-08-05T06:20:23.037Z,15.57
2022-08-05T06:22:51.007Z,12.67
2022-08-05T06:25:24.301Z,10.63
2022-08-05T06:28:11.536Z,12.67
2022-08-05T06:30:48.316Z,13.23
2022-08-05T06:33:19.007Z,17.27
2022-08-05T06:36:07.389Z,13.63
2022-08-05T06:38:36.191Z,8.43
2022-08-05T06:41:07.938Z,9.83
2022-08-05T06:43:57.956Z,9.83
2022-08-05T06:46:30.156Z,11.60
2022-08-05T06:48:59.342Z,12.97
2022-08-05T06:51:29.763Z,14.23
2022-08-05T06:53:58.280Z,11.93
2022-08-05T06:56:27.751Z,15.13
2022-08-05T06:58:55.666Z,13.87
2022-08-05T07:01:27.744Z,14.63
2022-08-05T07:04:00.499Z,19.27
2022-08-05T07:06:28.776Z,12.70
2022-08-05T07:08:56.496Z,11.17
2022-08-05T07:11:30.931Z,12.07
2022-08-05T07:14:29.007Z,12.80
2022-08-05T07:17:59.333Z,13.20
2022-08-05T07:22:36.629Z,12.67
2022-08-05T07:25:22.869Z,13.50
2022-08-05T07:28:02.301Z,13.60
2022-08-05T07:30:38.922Z,11.63
2022-08-05T07:33:10.380Z,15.67
2022-08-05T07:36:02.813Z,12.23
2022-08-05T07:38:42.498Z,14.37
2022-08-05T07:42:09.547Z,13.13
2022-08-05T07:44:03.936Z,10.87
2022-08-05T07:46:33.831Z,15.70
2022-08-05T07:49:05.969Z,14.67
2022-08-05T07:51:40.378Z,11.50
2022-08-05T07:54:11.428Z,11.07
2022-08-05T07:57:14.881Z,16.07
2022-08-05T07:59:39.117Z,10.97
2022-08-05T08:02:16.253Z,10.23
2022-08-05T08:04:45.509Z,13.20
2022-08-05T08:07:13.711Z,17.13
2022-08-05T08:09:41.520Z,14.97
2022-08-05T08:12:19.063Z,15.17
2022-08-05T08:15:02.214Z,12.07
2022-08-05T08:17:31.473Z,16.07
2022-08-05T08:20:44.014Z,13.37
2022-08-05T08:22:52.314Z,16.30
2022-08-05T08:25:26.542Z,16.47
2022-08-05T08:27:54.988Z,14.10
2022-08-05T08:30:32.374Z,15.37
2022-08-05T08:33:08.797Z,19.40
2022-08-05T08:35:53.190Z,16.83
2022-08-05T08:38:32.170Z,15.87
2022-08-05T08:41:07.209Z,14.43
2022-08-05T08:45:22.543Z,11.83
2022-08-05T08:46:29.033Z,11.57
2022-08-05T08:49:06.093Z,10.47
2022-08-05T08:52:03.359Z,12.30
2022-08-05T08:54:36.529Z,12.10
2022-08-05T08:57:11.497Z,11.97
2022-08-05T08:59:47.179Z,11.13
2022-08-05T09:02:19.057Z,12.77
2022-08-05T09:05:16.805Z,12.03
2022-08-05T09:07:39.899Z,11.43
2022-08-05T09:10:27.068Z,9.53
2022-08-05T09:12:56.855Z,8.80
2022-08-05T09:15:32.365Z,11.70
2022-08-05T09:18:08.666Z,12.53
2022-08-05T09:20:38.067Z,11.43
2022-08-05T09:23:19.861Z,10.00
2022-08-05T09:26:01.957Z,8.13
2022-08-05T09:28:34.062Z,12.40
2022-08-05T09:31:44.071Z,8.33
2022-08-05T09:33:58.443Z,8.03
2022-08-05T09:36:38.519Z,9.27
2022-08-05T09:39:23.037Z,11.23
2022-08-05T09:41:58.585Z,9.63
2022-08-05T09:44:40.986Z,13.17
2022-08-05T09:47:14.095Z,13.37
2022-08-05T09:50:00.525Z,9.33
2022-08-05T09:52:33.731Z,11.83
2022-08-05T09:55:21.143Z,13.97
2022-08-05T09:57:54.643Z,11.47
2022-08-05T10:00:26.901Z,11.17
2022-08-05T10:02:58.462Z,12.97
2022-08-05T10:05:32.763Z,16.73
2022-08-05T10:08:35.406Z,13.23
2022-08-05T10:10:54.486Z,19.43
2022-08-05T10:13:44.067Z,14.10
2022-08-05T10:16:41.572Z,21.60
2022-08-05T10:19:11.747Z,13.37
2022-08-05T10:21:41.321Z,12.43
2022-08-05T10:24:13.242Z,18.80
2022-08-05T10:26:51.953Z,15.50
2022-08-05T10:29:23.691Z,17.20
2022-08-05T10:32:52.877Z,14.17
2022-08-05T10:34:41.145Z,13.10
2022-08-05T10:37:13.220Z,13.93
2022-08-05T10:40:04.162Z,13.83
2022-08-05T10:42:38.455Z,16.47
2022-08-05T10:45:23.341Z,16.03
2022-08-05T10:48:31.571Z,17.67
2022-08-05T10:51:00.692Z,19.60
2022-08-05T10:53:42.594Z,14.90
2022-08-05T10:56:25.169Z,19.63
2022-08-05T10:59:12.680Z,18.63
2022-08-05T11:02:08.146Z,17.90
2022-08-05T11:04:45.252Z,13.73
2022-08-05T11:07:16.286Z,15.07
2022-08-05T11:09:47.774Z,14.70
2022-08-05T11:12:54.328Z,16.83
2022-08-05T11:15:59.235Z,13.67
2022-08-05T11:18:27.303Z,13.40
2022-08-05T11:20:58.265Z,14.73
2022-08-05T11:23:33.198Z,12.93
2022-08-05T11:26:09.178Z,15.00
2022-08-05T11:28:46.100Z,10.83
2022-08-05T11:31:58.243Z,11.13
2022-08-05T11:34:37.947Z,9.57
2022-08-05T11:38:30.195Z,11.17
2022-08-05T11:39:55.442Z,9.27
2022-08-05T11:42:30.110Z,10.23
2022-08-05T11:45:05.346Z,11.00
2022-08-05T11:47:48.444Z,9.60
2022-08-05T11:50:18.047Z,10.00
2022-08-05T11:52:48.838Z,11.07
2022-08-05T11:55:18.258Z,9.67
2022-08-05T11:58:10.385Z,8.07
2022-08-05T12:00:37.771Z,7.73
2022-08-05T12:03:23.927Z,7.83
2022-08-05T12:06:02.777Z,7.00
2022-08-05T12:08:32.874Z,6.67
2022-08-05T12:11:05.825Z,8.53
2022-08-05T12:13:48.511Z,6.23
2022-08-05T12:16:19.752Z,5.43
2022-08-05T12:18:53.759Z,5.37
2022-08-05T12:21:29.881Z,4.90
2022-08-05T12:24:05.114Z,5.90
2022-08-05T12:26:33.952Z,4.63
2022-08-05T12:29:04.175Z,8.50
2022-08-05T12:31:41.498Z,5.77
2022-08-05T12:34:21.455Z,5.93
2022-08-05T12:36:53.265Z,6.30
2022-08-05T12:39:21.697Z,5.73
2022-08-05T12:41:51.391Z,6.20
2022-08-05T12:44:33.425Z,4.40
2022-08-05T12:47:02.832Z,6.27
2022-08-05T12:50:02.276Z,5.90
2022-08-05T12:52:38.931Z,7.37
2022-08-05T12:55:22.237Z,5.50
2022-08-05T12:58:50.017Z,8.47
2022-08-05T13:02:01.664Z,5.47
2022-08-05T13:03:32.994Z,5.67
2022-08-05T13:06:01.442Z,4.07
2022-08-05T13:08:32.394Z,9.47
2022-08-05T13:11:02.003Z,7.13
2022-08-05T13:14:05.714Z,3.20
2022-08-05T13:16:25.099Z,5.60
2022-08-05T13:18:58.428Z,3.10
2022-08-05T13:21:28.506Z,3.20
2022-08-05T13:24:08.718Z,3.03
2022-08-05T13:26:36.941Z,3.10
2022-08-05T13:29:05.495Z,2.67
2022-08-05T13:32:03.924Z,3.73
2022-08-05T13:34:25.854Z,3.63
2022-08-05T13:36:54.417Z,3.63
2022-08-05T13:39:24.376Z,2.53
2022-08-05T13:42:14.287Z,2.43
2022-08-05T13:44:45.458Z,2.30
2022-08-05T13:47:28.133Z,2.17
2022-08-05T13:50:04.529Z,2.93
2022-08-05T13:52:35.186Z,4.13
2022-08-05T13:55:07.294Z,2.07
2022-08-05T13:57:51.573Z,3.13
2022-08-05T14:00:27.194Z,2.13
2022-08-05T14:02:57.464Z,2.60
2022-08-05T14:05:48.287Z,4.83
2022-08-05T14:08:21.263Z,3.67
2022-08-05T14:11:08.090Z,3.03
2022-08-05T14:13:48.206Z,5.60
2022-08-05T14:16:16.709Z,4.83
2022-08-05T14:18:46.626Z,2.30
2022-08-05T14:22:07.777Z,8.93
2022-08-05T14:24:02.361Z,3.53
2022-08-05T14:26:38.312Z,3.50
2022-08-05T14:29:16.084Z,3.53
2022-08-05T14:32:02.910Z,2.47
2022-08-05T14:34:35.491Z,2.53
2022-08-05T14:37:04.209Z,4.13
2022-08-05T14:39:50.157Z,4.87
2022-08-05T14:42:21.852Z,3.23
2022-08-05T14:44:49.840Z,3.67
2022-08-05T14:48:02.482Z,3.10
2022-08-05T14:50:18.204Z,3.37
2022-08-05T14:52:58.716Z,5.27
2022-08-05T14:55:28.702Z,2.80
2022-08-05T14:58:11.264Z,4.27
2022-08-05T15:00:58.666Z,2.77
2022-08-05T15:03:33.547Z,14.67
2022-08-05T15:06:15.501Z,1.70
2022-08-05T15:08:59.705Z,2.97
2022-08-05T15:11:50.994Z,1.93
2022-08-05T15:14:34.750Z,3.20
2022-08-05T15:17:14.729Z,3.50
2022-08-05T15:19:56.963Z,3.17
2022-08-05T15:22:27.162Z,1.70
2022-08-05T15:24:55.774Z,2.83
2022-08-05T15:27:25.656Z,1.63
2022-08-05T15:29:54.265Z,2.00
2022-08-05T15:32:27.510Z,3.00
2022-08-05T15:34:56.888Z,2.47
2022-08-05T15:38:09.242Z,2.63
2022-08-05T15:41:02.190Z,2.43
2022-08-05T15:43:09.313Z,1.90
2022-08-05T15:45:45.663Z,3.73
2022-08-05T15:48:15.213Z,4.00
2022-08-05T15:50:45.513Z,1.80
2022-08-05T15:53:15.233Z,2.60
2022-08-05T15:56:04.323Z,3.43
2022-08-05T15:58:35.566Z,2.50
2022-08-05T16:01:17.126Z,3.03
2022-08-05T16:03:48.311Z,1.90
2022-08-05T16:06:19.940Z,1.50
2022-08-05T16:08:53.771Z,2.33
2022-08-05T16:11:42.984Z,2.27
2022-08-05T16:14:11.164Z,4.17
2022-08-05T16:16:46.008Z,1.73
2022-08-05T16:19:25.287Z,1.87
2022-08-05T16:22:01.133Z,1.67
2022-08-05T16:24:41.872Z,1.80
2022-08-05T16:27:19.398Z,3.00
2022-08-05T16:30:00.179Z,1.30
2022-08-05T16:32:29.233Z,1.20
2022-08-05T16:34:58.923Z,3.10
2022-08-05T16:38:02.323Z,1.87
2022-08-05T16:40:24.923Z,1.63
2022-08-05T16:42:54.517Z,1.70
2022-08-05T16:46:06.536Z,1.00
2022-08-05T16:48:10.251Z,1.10
2022-08-05T16:50:38.330Z,0.90
2022-08-05T16:53:12.697Z,1.00
2022-08-05T16:55:53.064Z,3.40
2022-08-05T16:58:21.281Z,1.63
2022-08-05T17:00:53.239Z,2.40
2022-08-05T17:03:21.195Z,1.37
2022-08-05T17:05:53.883Z,0.93
2022-08-05T17:08:36.017Z,1.10
2022-08-05T17:11:16.574Z,0.90
2022-08-05T17:13:45.401Z,1.53
2022-08-05T17:16:29.839Z,1.17
2022-08-05T17:19:01.458Z,2.27
2022-08-05T17:21:35.297Z,1.20
2022-08-05T17:24:19.348Z,0.90
2022-08-05T17:26:54.089Z,1.07
2022-08-05T17:29:33.313Z,2.60
2022-08-05T17:32:14.774Z,1.00
2022-08-05T17:34:47.487Z,1.63
2022-08-05T17:37:40.937Z,1.00
2022-08-05T17:40:12.137Z,2.00
2022-08-05T17:42:50.564Z,1.77
2022-08-05T17:45:21.233Z,1.07
2022-08-05T17:47:53.990Z,1.10
2022-08-05T17:50:28.587Z,1.00
2022-08-05T17:53:00.024Z,1.50
2022-08-05T17:55:37.479Z,1.27
2022-08-05T17:58:11.076Z,1.40
2022-08-05T18:00:45.117Z,1.73
2022-08-05T18:06:11.535Z,1.00
2022-08-05T18:08:44.865Z,1.40
2022-08-05T18:11:23.876Z,1.20
2022-08-05T18:13:54.611Z,2.63
2022-08-05T18:16:23.213Z,1.13
2022-08-05T18:18:51.342Z,3.13
2022-08-05T18:21:22.729Z,1.80
2022-08-05T18:23:54.420Z,1.57
2022-08-05T18:26:29.183Z,1.47
2022-08-05T18:29:01.213Z,1.70
2022-08-05T18:31:33.085Z,1.70
2022-08-05T18:34:06.031Z,2.73
2022-08-05T18:36:39.889Z,2.43
2022-08-05T18:39:22.298Z,1.77
2022-08-05T18:42:03.724Z,1.80
2022-08-05T18:44:35.409Z,2.83
2022-08-05T18:47:19.646Z,1.80
2022-08-05T18:50:10.476Z,2.00
2022-08-05T18:52:41.710Z,2.53
2022-08-05T18:55:20.399Z,1.70
2022-08-05T18:57:53.090Z,3.10
2022-08-05T19:00:28.394Z,1.87
2022-08-05T19:03:03.570Z,2.10
2022-08-05T19:06:12.021Z,2.23
2022-08-05T19:08:30.767Z,2.63
2022-08-05T19:10:59.745Z,1.70
2022-08-05T19:13:36.131Z,2.43
2022-08-05T19:16:24.536Z,2.20
2022-08-05T19:18:56.654Z,2.77
2022-08-05T19:21:25.056Z,3.00
2022-08-05T19:24:07.615Z,3.60
2022-08-05T19:26:43.857Z,5.60
2022-08-05T19:29:35.543Z,5.27
2022-08-05T19:32:06.283Z,3.30
2022-08-05T19:34:39.679Z,2.60
2022-08-05T19:37:08.142Z,2.73
2022-08-05T19:39:45.697Z,3.47
2022-08-05T19:42:19.250Z,5.13
2022-08-05T19:45:05.882Z,4.67
2022-08-05T19:47:37.473Z,3.47
2022-08-05T19:50:07.857Z,3.53
2022-08-05T19:52:38.530Z,3.90
2022-08-05T19:56:11.587Z,4.37
2022-08-05T19:58:04.067Z,4.87
2022-08-05T20:00:45.591Z,3.47
2022-08-05T20:03:15.079Z,4.03
2022-08-05T20:05:51.113Z,4.20
2022-08-05T20:08:19.785Z,3.70
2022-08-05T20:10:49.534Z,3.10
2022-08-05T20:13:29.960Z,4.73
2022-08-05T20:15:58.170Z,3.30
2022-08-05T20:18:33.779Z,3.10
2022-08-05T20:21:04.655Z,6.27
2022-08-05T20:23:39.506Z,5.17
2022-08-05T20:26:17.681Z,5.00
2022-08-05T20:28:48.008Z,2.03
2022-08-05T20:31:16.665Z,2.17
2022-08-05T20:33:46.056Z,3.70
2022-08-05T20:36:16.118Z,3.97
2022-08-05T20:38:54.391Z,2.60
2022-08-05T20:41:27.441Z,5.53
2022-08-05T20:44:18.926Z,5.23
2022-08-05T20:46:57.738Z,3.07
2022-08-05T20:49:26.936Z,2.07
2022-08-05T20:51:55.083Z,3.27
2022-08-05T20:54:22.929Z,3.30
2022-08-05T20:56:52.805Z,2.57
2022-08-05T20:59:26.654Z,4.27
2022-08-05T21:01:57.846Z,3.00
2022-08-05T21:04:27.536Z,2.80
2022-08-05T21:06:55.806Z,1.93
2022-08-05T21:09:23.754Z,5.13
2022-08-05T21:12:09.702Z,3.13
2022-08-05T21:14:38.909Z,4.97
2022-08-05T21:17:07.058Z,1.90
2022-08-05T21:19:47.354Z,2.30
2022-08-05T21:22:18.515Z,2.23
2022-08-05T21:24:51.558Z,2.07
2022-08-05T21:27:20.643Z,3.27
2022-08-05T21:29:55.688Z,2.97
2022-08-05T21:32:26.642Z,1.50
2022-08-05T21:35:17.385Z,1.77
2022-08-05T21:37:48.086Z,1.60
2022-08-05T21:40:21.835Z,7.50
2022-08-05T21:42:51.938Z,1.80
2022-08-05T21:45:24.646Z,2.70
2022-08-05T21:47:56.144Z,2.07
2022-08-05T21:50:27.841Z,4.30
2022-08-05T21:52:58.826Z,2.43
2022-08-05T21:56:04.156Z,1.83
2022-08-05T21:58:20.111Z,3.37
2022-08-05T22:00:52.792Z,1.17
2022-08-05T22:03:48.789Z,3.30
2022-08-05T22:06:09.834Z,1.37
2022-08-05T22:08:37.812Z,0.83
2022-08-05T22:11:11.869Z,3.50
2022-08-05T22:14:32.408Z,1.33
2022-08-05T22:16:41.928Z,1.90
2022-08-05T22:20:00.866Z,1.53
2022-08-05T22:22:08.888Z,0.97
2022-08-05T22:24:55.734Z,3.53
2022-08-05T22:28:09.620Z,4.70
2022-08-05T22:30:34.973Z,1.83
2022-08-05T22:33:03.448Z,1.20
2022-08-05T22:35:47.870Z,1.70
2022-08-05T22:38:19.638Z,1.20
2022-08-05T22:40:49.993Z,1.37
2022-08-05T22:43:36.933Z,0.83
2022-08-05T22:46:13.547Z,2.00
2022-08-05T22:48:51.239Z,1.17
2022-08-05T22:51:22.776Z,1.10
2022-08-05T22:53:59.413Z,1.13
2022-08-05T22:56:30.164Z,0.70
2022-08-05T22:59:00.095Z,2.03
2022-08-05T23:02:04.387Z,1.03
2022-08-05T23:04:21.193Z,1.30
2022-08-05T23:06:48.962Z,2.40
2022-08-05T23:09:27.810Z,0.90
2022-08-05T23:12:06.326Z,1.40
2022-08-05T23:14:34.206Z,1.23
2022-08-05T23:17:24.564Z,1.23
2022-08-05T23:20:03.459Z,1.37
2022-08-05T23:22:31.270Z,1.40
2022-08-05T23:25:00.406Z,1.23
2022-08-05T23:27:31.284Z,1.53
2022-08-05T23:30:11.429Z,4.30
2022-08-05T23:32:44.993Z,1.93
2022-08-05T23:35:13.397Z,2.00
2022-08-05T23:37:41.312Z,1.67
2022-08-05T23:40:13.004Z,2.20
2022-08-05T23:42:41.797Z,2.73
2022-08-05T23:45:15.855Z,2.33
2022-08-05T23:47:47.900Z,1.27
2022-08-05T23:50:17.028Z,2.93
2022-08-05T23:52:50.168Z,2.20
2022-08-05T23:55:19.975Z,1.10
2022-08-05T23:57:52.655Z,2.33
